createdAt,value
2023-03-26T00:02:08.914Z,100.00
2023-03-26T00:04:37.280Z,100.00
2023-03-26T00:07:05.771Z,100.00
2023-03-26T00:09:34.046Z,100.00
2023-03-26T00:12:03.270Z,100.00
2023-03-26T00:14:35.492Z,100.00
2023-03-26T00:17:04.421Z,100.00
2023-03-26T00:19:33.974Z,100.00
2023-03-26T00:22:03.696Z,100.00
2023-03-26T00:24:32.222Z,100.00
2023-03-26T00:27:04.392Z,100.00
2023-03-26T00:29:37.186Z,100.00
2023-03-26T00:32:06.290Z,100.00
2023-03-26T00:34:35.299Z,100.00
2023-03-26T00:37:04.283Z,100.00
2023-03-26T00:39:35.147Z,100.00
2023-03-26T00:42:07.260Z,100.00
2023-03-26T00:44:35.851Z,100.00
2023-03-26T00:47:04.421Z,100.00
2023-03-26T00:49:32.904Z,100.00
2023-03-26T00:52:03.644Z,100.00
2023-03-26T00:54:32.554Z,100.00
2023-03-26T00:57:01.922Z,100.00
2023-03-26T00:59:32.002Z,100.00
2023-03-26T01:02:00.555Z,100.00
2023-03-26T01:04:32.188Z,100.00
2023-03-26T01:07:11.021Z,100.00
2023-03-26T01:09:44.994Z,100.00
2023-03-26T01:12:22.823Z,100.00
2023-03-26T01:14:52.340Z,100.00
2023-03-26T01:17:21.932Z,100.00
2023-03-26T01:19:52.084Z,100.00
2023-03-26T01:22:25.607Z,100.00
2023-03-26T01:24:56.413Z,100.00
2023-03-26T01:27:27.422Z,100.00
2023-03-26T01:30:10.007Z,100.00
2023-03-26T01:32:49.186Z,100.00
2023-03-26T01:35:40.878Z,100.00
2023-03-26T01:38:49.516Z,100.00
2023-03-26T01:41:20.622Z,100.00
2023-03-26T01:44:14.868Z,100.00
2023-03-26T01:46:43.621Z,100.00
2023-03-26T01:49:15.651Z,100.00
2023-03-26T01:51:44.855Z,100.00
2023-03-26T01:54:19.114Z,100.00
2023-03-26T01:57:11.714Z,100.00
2023-03-26T02:00:20.851Z,100.00
2023-03-26T02:03:18.280Z,100.00
2023-03-26T02:06:30.674Z,100.00
2023-03-26T02:09:03.660Z,100.00
2023-03-26T02:11:35.525Z,100.00
2023-03-26T02:14:07.212Z,100.00
2023-03-26T02:16:35.948Z,100.00
2023-03-26T02:19:05.128Z,100.00
2023-03-26T02:21:34.160Z,100.00
2023-03-26T02:24:05.378Z,100.00
2023-03-26T02:26:36.024Z,100.00
2023-03-26T02:29:10.172Z,100.00
2023-03-26T02:31:39.141Z,100.00
2023-03-26T02:34:07.563Z,100.00
2023-03-26T02:36:37.365Z,100.00
2023-03-26T02:39:05.857Z,100.00
2023-03-26T02:41:38.262Z,100.00
2023-03-26T02:44:10.380Z,100.00
2023-03-26T02:47:05.128Z,100.00
2023-03-26T02:49:52.329Z,100.00
2023-03-26T02:52:27.911Z,100.00
2023-03-26T02:54:57.456Z,100.00
2023-03-26T02:57:26.838Z,100.00
2023-03-26T03:00:22.851Z,100.00
2023-03-26T03:03:26.768Z,100.00
2023-03-26T03:06:01.156Z,100.00
2023-03-26T03:08:34.087Z,100.00
2023-03-26T03:11:13.403Z,100.00
2023-03-26T03:13:50.737Z,100.00
2023-03-26T03:16:30.692Z,100.00
2023-03-26T03:19:02.032Z,100.00
2023-03-26T03:21:45.538Z,100.00
2023-03-26T03:24:18.552Z,100.00
2023-03-26T03:26:48.364Z,100.00
2023-03-26T03:29:38.846Z,100.00
2023-03-26T03:32:25.979Z,100.00
2023-03-26T03:34:56.593Z,100.00
2023-03-26T03:37:26.359Z,100.00
2023-03-26T03:39:55.626Z,100.00
2023-03-26T03:42:27.569Z,100.00
2023-03-26T03:44:58.103Z,100.00
2023-03-26T03:47:47.386Z,100.00
2023-03-26T03:50:17.255Z,100.00
2023-03-26T03:52:59.216Z,100.00
2023-03-26T03:55:27.701Z,100.00
2023-03-26T03:57:58.466Z,100.00
2023-03-26T04:00:27.361Z,100.00
2023-03-26T04:03:33.918Z,100.00
2023-03-26T04:06:06.973Z,100.00
2023-03-26T04:08:35.615Z,100.00
2023-03-26T04:11:05.830Z,100.00
2023-03-26T04:13:52.634Z,100.00
2023-03-26T04:16:41.065Z,100.00
2023-03-26T04:19:14.513Z,100.00
2023-03-26T04:21:45.860Z,100.00
2023-03-26T04:24:14.036Z,100.00
2023-03-26T04:27:08.738Z,100.00
2023-03-26T04:29:44.426Z,100.00
2023-03-26T04:32:29.752Z,100.00
2023-03-26T04:35:01.013Z,100.00
2023-03-26T04:37:35.297Z,100.00
2023-03-26T04:40:18.413Z,100.00
2023-03-26T04:43:02.357Z,100.00
2023-03-26T04:45:52.409Z,100.00
2023-03-26T04:48:22.050Z,100.00
2023-03-26T04:50:50.432Z,100.00
2023-03-26T04:53:21.482Z,100.00
2023-03-26T04:56:39.223Z,100.00
2023-03-26T04:59:30.424Z,100.00
2023-03-26T05:02:00.334Z,100.00
2023-03-26T05:04:31.675Z,100.00
2023-03-26T05:07:00.867Z,100.00
2023-03-26T05:09:42.236Z,100.00
2023-03-26T05:12:16.615Z,100.00
2023-03-26T05:15:08.335Z,100.00
2023-03-26T05:17:55.670Z,100.00
2023-03-26T05:20:33.805Z,100.00
2023-03-26T05:23:07.513Z,100.00
2023-03-26T05:25:41.789Z,100.00
2023-03-26T05:28:19.541Z,100.00
2023-03-26T05:31:22.254Z,100.00
2023-03-26T05:33:55.078Z,100.00
2023-03-26T05:36:28.400Z,100.00
2023-03-26T05:39:05.736Z,100.00
2023-03-26T05:41:59.934Z,100.00
2023-03-26T05:44:40.796Z,100.00
2023-03-26T05:47:16.115Z,100.00
2023-03-26T05:49:44.414Z,100.00
2023-03-26T05:52:19.078Z,100.00
2023-03-26T05:55:08.050Z,100.00
2023-03-26T05:58:09.021Z,100.00
2023-03-26T06:01:05.444Z,100.00
2023-03-26T06:03:44.819Z,100.00
2023-03-26T06:06:19.461Z,100.00
2023-03-26T06:09:02.117Z,100.00
2023-03-26T06:11:32.410Z,100.00
2023-03-26T06:14:09.102Z,100.00
2023-03-26T06:16:40.288Z,100.00
2023-03-26T06:19:15.932Z,100.00
2023-03-26T06:21:52.440Z,100.00
2023-03-26T06:24:24.609Z,100.00
2023-03-26T06:27:16.581Z,100.00
2023-03-26T06:30:15.758Z,100.00
2023-03-26T06:50:32.347Z,98.55
2023-03-26T06:53:15.139Z,97.60
2023-03-26T06:56:17.615Z,97.46
2023-03-26T06:59:10.639Z,95.50
2023-03-26T07:01:55.842Z,95.49
2023-03-26T07:04:41.367Z,96.19
2023-03-26T07:07:26.737Z,94.45
2023-03-26T07:10:12.992Z,93.19
2023-03-26T07:13:07.082Z,92.40
2023-03-26T07:15:54.043Z,92.47
2023-03-26T07:18:30.675Z,91.90
2023-03-26T07:20:58.276Z,91.79
2023-03-26T07:23:29.522Z,90.02
2023-03-26T07:26:26.399Z,87.91
2023-03-26T07:29:22.591Z,86.03
2023-03-26T07:32:48.601Z,84.50
2023-03-26T07:36:24.993Z,84.01
2023-03-26T07:39:36.521Z,82.54
2023-03-26T07:42:50.971Z,81.74
2023-03-26T07:45:39.375Z,80.68
2023-03-26T07:48:24.889Z,80.58
2023-03-26T07:51:08.555Z,80.15
2023-03-26T07:53:59.685Z,80.95
2023-03-26T07:56:58.827Z,77.47
2023-03-26T07:59:44.976Z,77.01
2023-03-26T08:02:43.453Z,75.45
2023-03-26T08:06:06.540Z,75.93
2023-03-26T08:08:55.514Z,75.69
2023-03-26T08:12:13.667Z,73.38
2023-03-26T08:14:50.785Z,74.95
2023-03-26T08:17:47.388Z,74.62
2023-03-26T08:20:33.668Z,72.81
2023-03-26T08:23:37.521Z,72.08
2023-03-26T08:26:27.163Z,71.11
2023-03-26T08:28:56.597Z,70.98
2023-03-26T08:31:28.339Z,70.92
2023-03-26T08:33:55.070Z,69.80
2023-03-26T08:36:21.830Z,68.31
2023-03-26T08:38:51.926Z,68.82
2023-03-26T08:41:35.210Z,66.97
2023-03-26T08:44:13.049Z,67.42
2023-03-26T08:47:01.734Z,67.08
2023-03-26T08:50:03.236Z,66.81
2023-03-26T08:52:45.594Z,66.29
2023-03-26T08:55:54.170Z,66.37
2023-03-26T08:58:40.002Z,66.79
2023-03-26T09:01:26.484Z,65.82
2023-03-26T09:04:15.811Z,66.92
2023-03-26T09:06:52.639Z,67.00
2023-03-26T09:09:58.048Z,67.35
2023-03-26T09:12:56.178Z,68.32
2023-03-26T09:15:44.918Z,69.36
2023-03-26T09:18:22.845Z,68.31
2023-03-26T09:20:58.623Z,68.03
2023-03-26T09:23:28.295Z,67.75
2023-03-26T10:41:17.764Z,57.55
2023-03-26T10:44:40.362Z,57.07
2023-03-26T10:47:30.593Z,56.23
2023-03-26T10:50:01.729Z,55.01
2023-03-26T10:52:53.098Z,61.24
2023-03-26T10:55:26.474Z,74.56
2023-03-26T10:58:10.815Z,84.94
2023-03-26T11:00:44.854Z,93.28
2023-03-26T11:03:52.034Z,98.39
2023-03-26T11:06:32.149Z,100.00
2023-03-26T11:09:22.488Z,100.00
2023-03-26T11:12:26.991Z,100.00
2023-03-26T11:15:31.242Z,99.78
2023-03-26T11:18:24.309Z,94.91
2023-03-26T11:21:19.106Z,88.74
2023-03-26T11:24:23.258Z,87.01
2023-03-26T11:26:55.777Z,79.46
2023-03-26T11:29:31.264Z,74.52
2023-03-26T11:32:06.049Z,71.07
2023-03-26T11:34:40.019Z,69.12
2023-03-26T11:37:20.159Z,71.23
2023-03-26T11:39:55.132Z,73.14
2023-03-26T11:42:24.854Z,74.85
2023-03-26T11:44:56.383Z,75.00
2023-03-26T11:47:36.467Z,72.13
2023-03-26T11:50:07.177Z,71.14
2023-03-26T11:52:35.211Z,70.74
2023-03-26T11:55:03.847Z,70.87
2023-03-26T11:57:33.456Z,71.80
2023-03-26T12:00:10.933Z,71.23
2023-03-26T12:02:57.472Z,71.71
2023-03-26T12:05:31.460Z,72.54
2023-03-26T12:08:03.375Z,68.86
2023-03-26T12:10:39.151Z,65.19
2023-03-26T12:13:24.996Z,64.65
2023-03-26T12:15:58.523Z,63.74
2023-03-26T12:18:28.032Z,62.89
2023-03-26T12:21:11.370Z,62.86
2023-03-26T12:23:43.824Z,63.02
2023-03-26T12:26:41.376Z,66.42
2023-03-26T12:29:11.800Z,68.09
2023-03-26T12:31:49.865Z,68.50
2023-03-26T12:34:21.699Z,72.00
2023-03-26T12:36:55.407Z,75.10
2023-03-26T12:40:10.557Z,79.50
2023-03-26T12:44:49.730Z,83.87
2023-03-26T12:45:23.135Z,83.17
2023-03-26T12:48:02.312Z,82.70
2023-03-26T12:50:48.560Z,81.04
2023-03-26T12:53:41.359Z,79.06
2023-03-26T12:56:09.418Z,79.36
2023-03-26T12:58:44.117Z,79.53
2023-03-26T13:01:38.422Z,78.37
2023-03-26T13:04:08.376Z,77.99
2023-03-26T13:06:59.486Z,77.37
2023-03-26T13:09:38.381Z,78.15
2023-03-26T13:12:14.426Z,79.19
2023-03-26T13:15:02.073Z,82.48
2023-03-26T13:17:52.185Z,86.11
2023-03-26T13:20:34.123Z,86.55
2023-03-26T13:23:44.005Z,88.50
2023-03-26T13:26:47.116Z,85.30
2023-03-26T13:29:18.673Z,79.74
2023-03-26T13:31:55.947Z,76.07
2023-03-26T13:34:54.909Z,76.90
2023-03-26T13:40:43.442Z,76.55
2023-03-26T13:43:59.806Z,77.21
2023-03-26T13:46:40.021Z,78.13
2023-03-26T13:49:08.346Z,77.30
2023-03-26T13:51:58.688Z,76.35
2023-03-26T13:54:35.988Z,74.65
2023-03-26T13:57:29.911Z,74.35
2023-03-26T13:59:59.887Z,73.66
2023-03-26T14:02:34.651Z,74.02
2023-03-26T14:05:46.244Z,75.29
2023-03-26T14:08:25.190Z,73.96
2023-03-26T14:10:59.353Z,73.37
2023-03-26T14:13:31.378Z,73.35
2023-03-26T14:16:09.634Z,73.05
2023-03-26T14:18:51.513Z,72.50
2023-03-26T14:21:28.949Z,72.06
2023-03-26T14:24:03.524Z,72.83
2023-03-26T14:26:58.292Z,72.01
2023-03-26T14:29:56.607Z,72.44
2023-03-26T14:32:51.802Z,72.93
2023-03-26T14:35:26.415Z,74.50
2023-03-26T14:38:15.101Z,75.47
2023-03-26T14:41:24.647Z,75.93
2023-03-26T14:44:24.338Z,76.43
2023-03-26T14:47:11.282Z,75.67
2023-03-26T14:50:04.783Z,76.00
2023-03-26T14:52:50.105Z,76.30
2023-03-26T14:55:42.165Z,76.31
2023-03-26T14:58:34.048Z,75.48
2023-03-26T15:01:25.151Z,75.62
2023-03-26T15:04:11.712Z,76.88
2023-03-26T15:07:12.941Z,77.86
2023-03-26T15:10:22.769Z,78.93
2023-03-26T15:13:17.550Z,78.73
2023-03-26T15:16:26.120Z,78.56
2023-03-26T15:19:21.994Z,78.46
2023-03-26T15:22:32.318Z,78.23
2023-03-26T15:25:54.813Z,79.02
2023-03-26T15:28:32.102Z,79.57
2023-03-26T15:31:37.676Z,79.78
2023-03-26T15:34:20.146Z,80.81
2023-03-26T15:37:00.441Z,80.87
2023-03-26T15:39:58.987Z,81.01
2023-03-26T15:42:35.516Z,81.23
2023-03-26T15:45:20.150Z,80.75
2023-03-26T15:48:14.138Z,80.74
2023-03-26T15:51:03.969Z,81.41
2023-03-26T15:53:55.539Z,81.19
2023-03-26T15:56:49.246Z,81.86
2023-03-26T15:59:47.442Z,82.62
2023-03-26T16:02:38.993Z,83.18
2023-03-26T16:05:39.602Z,83.34
2023-03-26T16:08:38.849Z,84.02
2023-03-26T16:11:09.466Z,84.66
2023-03-26T16:13:42.620Z,85.23
2023-03-26T16:16:19.910Z,86.29
2023-03-26T16:18:54.423Z,87.44
2023-03-26T16:21:32.739Z,87.90
2023-03-26T16:24:08.248Z,88.48
2023-03-26T16:26:37.313Z,89.09
2023-03-26T16:29:14.644Z,89.34
2023-03-26T16:32:17.725Z,89.95
2023-03-26T16:34:45.811Z,90.10
2023-03-26T16:37:36.288Z,90.67
2023-03-26T16:40:16.922Z,91.28
2023-03-26T16:42:48.431Z,91.98
2023-03-26T16:45:22.952Z,92.18
2023-03-26T16:47:55.719Z,92.03
2023-03-26T16:50:31.101Z,92.62
2023-03-26T16:53:15.588Z,92.85
2023-03-26T16:55:51.268Z,93.31
2023-03-26T16:58:48.137Z,93.47
2023-03-26T17:01:36.106Z,93.35
2023-03-26T17:04:23.397Z,93.12
2023-03-26T17:07:01.934Z,92.90
2023-03-26T17:09:51.860Z,92.90
2023-03-26T17:12:29.248Z,92.48
2023-03-26T17:15:18.363Z,92.56
2023-03-26T17:18:01.993Z,92.63
2023-03-26T17:20:58.578Z,93.19
2023-03-26T17:23:27.194Z,93.41
2023-03-26T17:26:11.804Z,93.54
2023-03-26T17:29:10.228Z,93.60
2023-03-26T17:31:38.747Z,94.31
2023-03-26T17:34:51.949Z,94.86
2023-03-26T17:37:23.536Z,95.51
2023-03-26T17:40:00.454Z,96.01
2023-03-26T17:42:36.115Z,96.53
2023-03-26T17:45:29.103Z,96.84
2023-03-26T17:47:58.980Z,97.27
2023-03-26T17:50:46.915Z,97.99
2023-03-26T17:53:32.607Z,98.13
2023-03-26T17:56:04.007Z,98.49
2023-03-26T17:58:50.879Z,98.47
2023-03-26T18:01:39.275Z,98.86
2023-03-26T18:04:11.666Z,99.37
2023-03-26T18:06:49.947Z,99.93
2023-03-26T18:09:37.733Z,99.91
2023-03-26T18:12:11.723Z,100.00
2023-03-26T18:15:17.836Z,100.00
2023-03-26T18:17:47.023Z,100.00
2023-03-26T18:20:23.353Z,100.00
2023-03-26T18:22:51.881Z,100.00
2023-03-26T18:25:35.089Z,100.00
2023-03-26T18:28:03.374Z,100.00
2023-03-26T18:30:31.690Z,100.00
2023-03-26T18:33:01.258Z,100.00
2023-03-26T18:35:41.930Z,100.00
2023-03-26T18:38:35.845Z,100.00
2023-03-26T18:41:08.071Z,100.00
2023-03-26T18:43:44.733Z,100.00
2023-03-26T18:46:13.948Z,100.00
2023-03-26T18:48:44.145Z,98.03
2023-03-26T18:51:15.960Z,96.03
2023-03-26T18:53:55.135Z,94.77
2023-03-26T18:56:40.409Z,93.63
2023-03-26T18:59:28.149Z,93.47
2023-03-26T19:01:59.446Z,92.85
2023-03-26T19:04:28.483Z,92.65
2023-03-26T19:06:56.948Z,92.61
2023-03-26T19:09:31.555Z,92.70
2023-03-26T19:12:28.485Z,92.10
2023-03-26T19:15:07.909Z,91.66
2023-03-26T19:17:44.781Z,92.18
2023-03-26T19:20:16.931Z,92.26
2023-03-26T19:22:46.405Z,92.87
2023-03-26T19:25:21.707Z,93.30
2023-03-26T19:27:50.780Z,93.73
2023-03-26T19:30:29.351Z,93.75
2023-03-26T19:33:12.196Z,93.98
2023-03-26T19:35:45.492Z,94.16
2023-03-26T19:38:38.039Z,94.42
2023-03-26T19:41:06.358Z,94.83
2023-03-26T19:43:35.969Z,95.43
2023-03-26T19:46:04.165Z,95.87
2023-03-26T19:48:46.013Z,96.06
2023-03-26T19:51:23.008Z,96.75
2023-03-26T19:53:55.895Z,96.96
2023-03-26T19:56:24.169Z,97.83
2023-03-26T19:58:52.676Z,98.58
2023-03-26T20:01:25.766Z,99.76
2023-03-26T20:03:57.806Z,100.00
2023-03-26T20:06:41.853Z,100.00
2023-03-26T20:09:12.534Z,100.00
2023-03-26T20:11:41.280Z,100.00
2023-03-26T20:14:17.288Z,100.00
2023-03-26T20:16:46.196Z,100.00
2023-03-26T20:19:15.179Z,100.00
2023-03-26T20:21:46.203Z,100.00
2023-03-26T20:24:17.623Z,100.00
2023-03-26T20:26:46.216Z,100.00
2023-03-26T20:29:14.607Z,100.00
2023-03-26T20:31:43.159Z,100.00
2023-03-26T20:34:32.350Z,100.00
2023-03-26T20:37:01.380Z,100.00
2023-03-26T20:39:29.751Z,100.00
2023-03-26T20:41:59.905Z,100.00
2023-03-26T20:44:28.301Z,100.00
2023-03-26T20:46:57.297Z,100.00
2023-03-26T20:49:29.291Z,100.00
2023-03-26T20:51:59.644Z,100.00
2023-03-26T20:54:30.402Z,100.00
2023-03-26T20:56:59.428Z,100.00
2023-03-26T20:59:32.854Z,100.00
2023-03-26T21:02:02.156Z,100.00
2023-03-26T21:04:30.608Z,100.00
2023-03-26T21:07:07.270Z,100.00
2023-03-26T21:09:42.296Z,100.00
2023-03-26T21:12:42.243Z,100.00
2023-03-26T21:15:22.770Z,100.00
2023-03-26T21:17:53.148Z,100.00
2023-03-26T21:20:22.721Z,100.00
2023-03-26T21:23:04.045Z,100.00
2023-03-26T21:25:39.018Z,100.00
2023-03-26T21:28:28.940Z,100.00
2023-03-26T21:31:05.906Z,100.00
2023-03-26T21:33:34.530Z,100.00
2023-03-26T21:36:05.771Z,100.00
2023-03-26T21:38:35.510Z,100.00
2023-03-26T21:41:08.063Z,100.00
2023-03-26T21:43:36.703Z,100.00
2023-03-26T21:46:05.698Z,100.00
2023-03-26T21:48:34.630Z,100.00
2023-03-26T21:51:04.801Z,100.00
2023-03-26T21:56:47.484Z,100.00
2023-03-26T21:59:43.924Z,100.00
2023-03-26T22:02:54.428Z,100.00
2023-03-26T22:05:49.149Z,100.00
2023-03-26T22:08:31.613Z,100.00
2023-03-26T22:10:59.695Z,100.00
2023-03-26T22:13:29.521Z,100.00
2023-03-26T22:15:58.282Z,100.00
2023-03-26T22:18:30.352Z,100.00
2023-03-26T22:20:59.341Z,100.00
2023-03-26T22:23:34.246Z,100.00
2023-03-26T22:26:03.397Z,100.00
2023-03-26T22:28:32.611Z,100.00
2023-03-26T22:31:07.395Z,100.00
2023-03-26T22:33:36.258Z,100.00
2023-03-26T22:36:06.388Z,100.00
2023-03-26T22:38:53.929Z,100.00
2023-03-26T22:41:23.789Z,100.00
2023-03-26T22:43:54.943Z,100.00
2023-03-26T22:46:24.605Z,100.00
2023-03-26T22:48:54.214Z,100.00
2023-03-26T22:51:24.872Z,100.00
2023-03-26T22:53:53.238Z,100.00
2023-03-26T22:56:21.711Z,100.00
2023-03-26T22:58:49.753Z,100.00
2023-03-26T23:01:21.243Z,100.00
2023-03-26T23:03:49.272Z,100.00
2023-03-26T23:06:17.196Z,100.00
2023-03-26T23:08:46.428Z,100.00
2023-03-26T23:11:16.159Z,100.00
2023-03-26T23:13:47.710Z,100.00
2023-03-26T23:16:16.243Z,100.00
2023-03-26T23:18:47.249Z,100.00
2023-03-26T23:21:18.427Z,100.00
2023-03-26T23:23:50.327Z,100.00
2023-03-26T23:26:19.495Z,100.00
2023-03-26T23:28:48.427Z,100.00
2023-03-26T23:31:16.789Z,100.00
2023-03-26T23:33:50.173Z,100.00
2023-03-26T23:39:42.709Z,100.00
2023-03-26T23:42:11.715Z,100.00
2023-03-26T23:44:46.447Z,100.00
2023-03-26T23:47:16.719Z,100.00
2023-03-26T23:49:45.028Z,100.00
2023-03-26T23:52:13.785Z,100.00
2023-03-26T23:54:42.655Z,100.00
2023-03-26T23:57:11.541Z,100.00
2023-03-26T23:59:43.744Z,100.00
